createdAt,value
2019-05-25T00:04:04.873Z,66.8
2019-05-25T00:09:07.395Z,67.5
2019-05-25T00:14:09.750Z,68.1
2019-05-25T00:19:12.193Z,68.9
2019-05-25T00:24:14.636Z,69.6
2019-05-25T00:29:17.072Z,70
2019-05-25T00:34:19.511Z,70.5
2019-05-25T00:39:22.184Z,71.2
2019-05-25T00:44:24.399Z,72
2019-05-25T00:49:26.841Z,72.7
2019-05-25T00:54:29.313Z,73.3
2019-05-25T00:59:31.717Z,74.2
2019-05-25T01:04:34.198Z,74.9
2019-05-25T01:09:36.618Z,75.8
2019-05-25T01:14:39.043Z,76.9
2019-05-25T01:19:41.456Z,78.4
2019-05-25T01:24:44.966Z,78.9
2019-05-25T01:29:46.351Z,79.2
2019-05-25T01:34:48.858Z,79.6
2019-05-25T01:39:51.237Z,79.6
2019-05-25T01:44:53.733Z,80
2019-05-25T01:49:56.120Z,80.9
2019-05-25T01:55:00.106Z,81.9
2019-05-25T02:00:01.045Z,82.2
2019-05-25T02:05:03.479Z,82.9
2019-05-25T02:10:05.877Z,83.2
2019-05-25T02:15:08.374Z,84
2019-05-25T02:20:10.826Z,85.4
2019-05-25T02:25:18.410Z,86.1
2019-05-25T02:30:15.756Z,87.8
2019-05-25T02:35:18.092Z,90.8
2019-05-25T02:40:20.615Z,92.3
2019-05-25T02:45:22.942Z,92.8
2019-05-25T02:50:25.412Z,93.4
2019-05-25T02:55:34.112Z,94.3
2019-05-25T03:00:30.294Z,94.2
2019-05-25T03:05:32.711Z,94.1
2019-05-25T03:10:35.181Z,94.1
2019-05-25T03:15:37.613Z,94.6
2019-05-25T03:20:40.042Z,96.3
2019-05-25T03:25:49.409Z,96.6
2019-05-25T03:30:44.915Z,96.5
2019-05-25T03:35:47.391Z,95.6
2019-05-25T03:40:49.798Z,95.5
2019-05-25T03:45:52.347Z,95.4
2019-05-25T03:50:54.666Z,95.3
2019-05-25T03:56:05.531Z,95.3
2019-05-25T04:00:59.560Z,95.4
2019-05-25T04:06:02.069Z,95.6
2019-05-25T04:11:04.450Z,95.9
2019-05-25T04:16:06.886Z,96.3
2019-05-25T04:21:09.460Z,95.9
2019-05-25T04:26:21.749Z,96.1
2019-05-25T04:31:14.187Z,96.5
2019-05-25T04:36:16.673Z,96.4
2019-05-25T04:41:19.079Z,96.7
2019-05-25T04:46:21.753Z,96.8
2019-05-25T04:51:24.027Z,96.7
2019-05-25T04:56:38.592Z,97.1
2019-05-25T05:01:28.851Z,97.3
2019-05-25T05:06:31.291Z,97.6
2019-05-25T05:11:33.738Z,98
2019-05-25T05:16:36.202Z,98.3
2019-05-25T05:21:38.776Z,98.7
2019-05-25T05:26:54.522Z,99.2
2019-05-25T05:31:43.479Z,99.9
2019-05-25T05:36:45.933Z,99.9
2019-05-25T05:41:48.424Z,99.9
2019-05-25T05:46:50.809Z,99.9
2019-05-25T05:51:53.242Z,99.9
2019-05-25T05:57:11.007Z,99.9
2019-05-25T06:01:58.138Z,99.9
2019-05-25T06:07:00.784Z,99.9
2019-05-25T06:12:03.085Z,99.9
2019-05-25T06:17:05.513Z,99.9
2019-05-25T06:27:10.366Z,99.9
2019-05-25T06:32:12.776Z,99.9
2019-05-25T06:37:15.244Z,99.9
2019-05-25T06:42:17.632Z,99.9
2019-05-25T06:47:20.087Z,99.9
2019-05-25T06:52:22.534Z,99.9
2019-05-25T06:57:25.035Z,99.9
2019-05-25T07:02:27.434Z,99.9
2019-05-25T07:07:29.887Z,99.9
2019-05-25T07:12:32.329Z,99.9
2019-05-25T07:17:34.728Z,99.9
2019-05-25T07:22:37.288Z,99.9
2019-05-25T07:27:39.635Z,99.9
2019-05-25T07:32:42.135Z,99.9
2019-05-25T07:37:44.526Z,99.9
2019-05-25T07:42:46.921Z,99.9
2019-05-25T07:47:49.375Z,99.9
2019-05-25T07:52:51.866Z,99.9
2019-05-25T07:57:54.254Z,99.9
2019-05-25T08:02:56.730Z,99.9
2019-05-25T08:07:59.185Z,99.9
2019-05-25T08:13:01.630Z,99.9
2019-05-25T08:18:04.051Z,99.9
2019-05-25T08:23:06.495Z,99.9
2019-05-25T08:28:08.899Z,99.9
2019-05-25T08:33:11.328Z,99.9
2019-05-25T08:38:13.821Z,99.9
2019-05-25T08:43:16.215Z,99.9
2019-05-25T08:48:18.699Z,99.9
2019-05-25T08:53:31.281Z,99.9
2019-05-25T08:58:23.537Z,99.3
2019-05-25T09:03:26.014Z,99.9
2019-05-25T09:08:28.418Z,99.1
2019-05-25T09:13:30.999Z,97.5
2019-05-25T09:18:33.414Z,95.7
2019-05-25T09:23:35.824Z,96.4
2019-05-25T09:28:38.178Z,95.2
2019-05-25T09:33:40.642Z,94.1
2019-05-25T09:38:43.440Z,92.8
2019-05-25T09:43:45.609Z,91.5
2019-05-25T09:48:47.966Z,90.7
2019-05-25T09:53:50.384Z,89.7
2019-05-25T09:58:52.844Z,89
2019-05-25T10:03:56.677Z,89.5
2019-05-25T10:08:57.720Z,86.7
2019-05-25T10:14:00.180Z,87.5
2019-05-25T10:19:02.628Z,86.7
2019-05-25T10:24:05.034Z,86.4
2019-05-25T10:29:07.496Z,85.6
2019-05-25T10:34:09.935Z,83.7
2019-05-25T10:39:12.387Z,85.8
2019-05-25T10:44:14.812Z,72.8
2019-05-25T10:59:22.199Z,72.8
2019-05-25T11:04:24.599Z,67.1
2019-05-25T11:09:26.998Z,66.8
2019-05-25T11:14:29.451Z,64.6
2019-05-25T11:19:31.892Z,64.6
2019-05-25T11:24:34.332Z,64.5
2019-05-25T11:29:36.796Z,64.8
2019-05-25T11:34:39.221Z,66.2
2019-05-25T11:39:41.648Z,65.4
2019-05-25T11:44:44.104Z,61
2019-05-25T11:49:46.565Z,60.8
2019-05-25T11:54:48.995Z,60.3
2019-05-25T11:59:51.498Z,60.4
2019-05-25T12:04:53.892Z,64.8
2019-05-25T12:09:56.346Z,62.4
2019-05-25T12:14:58.782Z,59.7
2019-05-25T12:20:01.325Z,60.3
2019-05-25T12:25:03.869Z,61
2019-05-25T12:30:06.104Z,59.3
2019-05-25T12:35:08.512Z,57.7
2019-05-25T12:40:10.962Z,58.4
2019-05-25T12:45:13.534Z,59.7
2019-05-25T12:50:15.845Z,59
2019-05-25T12:55:18.296Z,55.7
2019-05-25T13:00:20.767Z,54.8
2019-05-25T13:05:33.339Z,55
2019-05-25T13:10:25.619Z,55.1
2019-05-25T13:15:28.048Z,56.2
2019-05-25T13:20:30.475Z,57.2
2019-05-25T13:25:32.939Z,57.3
2019-05-25T13:30:35.364Z,58.2
2019-05-25T13:35:37.867Z,58.9
2019-05-25T13:40:40.242Z,58.7
2019-05-25T13:45:45.843Z,58.8
2019-05-25T13:50:45.156Z,59.8
2019-05-25T13:55:47.617Z,59.1
2019-05-25T14:00:50.059Z,57.8
2019-05-25T14:05:52.455Z,56.5
2019-05-25T14:10:54.903Z,55.1
2019-05-25T14:16:06.489Z,53.4
2019-05-25T14:20:59.769Z,51.5
2019-05-25T14:26:02.287Z,49.4
2019-05-25T14:31:04.706Z,50.3
2019-05-25T14:36:07.153Z,48.4
2019-05-25T14:41:09.557Z,48.7
2019-05-25T14:46:26.781Z,50.5
2019-05-25T14:51:14.457Z,52.4
2019-05-25T14:56:16.877Z,54
2019-05-25T15:01:19.334Z,54.6
2019-05-25T15:06:21.787Z,55.1
2019-05-25T15:11:24.220Z,56.1
2019-05-25T15:16:26.660Z,57.3
2019-05-25T15:21:29.313Z,57.6
2019-05-25T15:26:31.560Z,57.8
2019-05-25T15:31:34.011Z,58.1
2019-05-25T15:36:36.418Z,58.9
2019-05-25T15:41:38.841Z,59.3
2019-05-25T15:46:41.351Z,60.9
2019-05-25T15:51:43.722Z,60.6
2019-05-25T15:56:46.169Z,55.8
2019-05-25T16:01:48.669Z,50.6
2019-05-25T16:06:51.129Z,50.3
2019-05-25T16:11:53.492Z,50.1
2019-05-25T16:16:55.970Z,51
2019-05-25T16:21:58.387Z,51.5
2019-05-25T16:27:00.858Z,52
2019-05-25T16:32:03.291Z,53
2019-05-25T16:37:05.855Z,54.3
2019-05-25T16:42:08.358Z,55.7
2019-05-25T16:47:10.621Z,55.6
2019-05-25T16:52:13.037Z,55.4
2019-05-25T16:57:15.480Z,54.7
2019-05-25T17:02:17.918Z,54.8
2019-05-25T17:07:20.345Z,53.6
2019-05-25T17:12:22.811Z,53
2019-05-25T17:17:25.240Z,53.6
2019-05-25T17:22:27.700Z,53.9
2019-05-25T17:27:30.125Z,54.9
2019-05-25T17:32:32.588Z,55.2
2019-05-25T17:37:35.033Z,55.8
2019-05-25T17:47:39.897Z,56.5
2019-05-25T17:52:42.332Z,56.7
2019-05-25T17:57:44.762Z,56.8
2019-05-25T18:02:47.224Z,57
2019-05-25T18:07:49.652Z,57
2019-05-25T18:12:52.163Z,57.2
2019-05-25T18:17:54.555Z,57.4
2019-05-25T18:22:56.972Z,57.8
2019-05-25T18:27:59.415Z,58.1
2019-05-25T18:33:01.908Z,58.7
2019-05-25T18:38:04.328Z,59.1
2019-05-25T18:43:06.737Z,59.9
2019-05-25T18:48:09.194Z,60.8
2019-05-25T18:58:14.074Z,62.7
2019-05-25T19:03:16.524Z,63.5
2019-05-25T19:08:19.060Z,64.7
2019-05-25T19:13:21.427Z,65.8
2019-05-25T19:18:23.820Z,66.9
2019-05-25T19:23:26.294Z,67.7
2019-05-25T19:28:28.693Z,68.7
2019-05-25T19:33:31.179Z,69.7
2019-05-25T19:38:33.603Z,70.9
2019-05-25T19:43:36.276Z,72.7
2019-05-25T19:48:38.800Z,74.9
2019-05-25T19:53:40.903Z,75.6
2019-05-25T19:58:43.356Z,77
2019-05-25T20:03:45.796Z,80.7
2019-05-25T20:08:48.219Z,84
2019-05-25T20:13:50.674Z,85.2
2019-05-25T20:18:53.142Z,85.9
2019-05-25T20:23:55.564Z,85.4
2019-05-25T20:28:58.023Z,84.9
2019-05-25T20:34:00.446Z,85.4
2019-05-25T20:39:02.924Z,85.8
2019-05-25T20:44:05.421Z,86.5
2019-05-25T20:49:07.765Z,87.7
2019-05-25T20:54:10.325Z,87.6
2019-05-25T20:59:12.631Z,87.7
2019-05-25T21:04:15.138Z,87.8
2019-05-25T21:09:17.510Z,87.8
2019-05-25T21:14:19.956Z,88.4
2019-05-25T21:19:22.418Z,88.9
2019-05-25T21:24:24.837Z,89.8
2019-05-25T21:29:27.397Z,90.4
2019-05-25T21:34:29.779Z,90.7
2019-05-25T21:39:32.174Z,90.8
2019-05-25T21:44:34.596Z,91
2019-05-25T21:49:37.104Z,91
2019-05-25T21:54:39.519Z,91.3
2019-05-25T21:59:41.958Z,91.5
2019-05-25T22:04:44.370Z,91.5
2019-05-25T22:09:46.809Z,92.1
2019-05-25T22:14:49.255Z,92.4
2019-05-25T22:19:51.796Z,92.1
2019-05-25T22:24:54.113Z,91.9
2019-05-25T22:29:56.563Z,91.9
2019-05-25T22:34:58.998Z,92.1
2019-05-25T22:40:01.457Z,92.2
2019-05-25T22:45:04.045Z,92.1
2019-05-25T22:50:06.344Z,92.1
2019-05-25T22:55:08.778Z,92.1
2019-05-25T23:00:11.370Z,91.9
2019-05-25T23:05:13.711Z,91.5
2019-05-25T23:10:16.105Z,91.3
2019-05-25T23:15:18.540Z,90.9
2019-05-25T23:20:21.071Z,90.9
2019-05-25T23:25:23.425Z,90.7
2019-05-25T23:30:25.916Z,90.5
2019-05-25T23:35:28.300Z,90.4
2019-05-25T23:40:30.736Z,90.4
2019-05-25T23:45:33.161Z,90.5
2019-05-25T23:50:35.632Z,90.5
2019-05-25T23:55:38.065Z,90.4
